Time;durP1;ratioP1;P1;durP2;ratioP2;P2;SDS_P1;SDS_P2;PMS_P1;PMS_P2;Temp;Humidity;BMP_temperature;BMP_pressure;BME280_temperature;BME280_humidity;BME280_pressure;Samples;Min_cycle;Max_cycle;Signal;HPM_P1;HPM_P2
2021/09/09 00:00:16;;;;;;;24.63;18.45;;;19.80;99.90;;;;;;5052807;28;20029;-74
2021/09/09 00:02:42;;;;;;;21.42;16.83;;;19.60;99.90;;;;;;5055189;28;20035;-75
2021/09/09 00:05:09;;;;;;;22.48;17.77;;;19.60;99.90;;;;;;5072343;28;20451;-74
2021/09/09 00:07:35;;;;;;;24.35;17.77;;;19.60;99.90;;;;;;5067273;28;20017;-75
2021/09/09 00:10:01;;;;;;;22.90;18.20;;;19.60;99.90;;;;;;5071511;28;20040;-75
2021/09/09 00:12:27;;;;;;;24.17;17.55;;;19.60;99.90;;;;;;5072505;28;20090;-74
2021/09/09 00:14:53;;;;;;;23.55;18.55;;;19.60;99.90;;;;;;5069910;28;20016;-75
2021/09/09 00:17:18;;;;;;;24.70;18.60;;;19.60;99.90;;;;;;5071950;28;20032;-75
2021/09/09 00:19:44;;;;;;;25.70;18.33;;;19.60;99.90;;;;;;5071036;28;20081;-74
2021/09/09 00:22:10;;;;;;;22.63;17.15;;;19.60;99.90;;;;;;5072442;28;20048;-74
2021/09/09 00:24:36;;;;;;;26.20;19.20;;;19.60;99.90;;;;;;5071664;28;20103;-75
2021/09/09 00:27:02;;;;;;;22.25;17.73;;;19.60;99.90;;;;;;5072440;28;20040;-75
2021/09/09 00:29:27;;;;;;;19.90;17.80;;;19.70;99.90;;;;;;5070744;28;20036;-74
2021/09/09 00:31:53;;;;;;;28.92;18.77;;;19.70;99.90;;;;;;5054587;28;20036;-75
2021/09/09 00:34:18;;;;;;;25.85;20.20;;;19.70;99.90;;;;;;5070856;28;20047;-75
2021/09/09 00:36:44;;;;;;;27.50;21.08;;;19.70;99.90;;;;;;5072529;28;20110;-74
2021/09/09 00:39:10;;;;;;;24.23;18.33;;;19.70;99.90;;;;;;5070606;28;20020;-74
2021/09/09 00:41:35;;;;;;;24.77;19.20;;;19.60;99.90;;;;;;5050090;28;20029;-75
2021/09/09 00:44:02;;;;;;;22.80;17.52;;;19.50;99.90;;;;;;5067705;28;20125;-75
2021/09/09 00:46:29;;;;;;;26.55;18.40;;;19.50;99.90;;;;;;5072329;28;20031;-74
2021/09/09 00:48:54;;;;;;;21.83;18.10;;;19.30;99.90;;;;;;5071620;28;20473;-76
2021/09/09 00:51:20;;;;;;;21.42;18.83;;;19.40;99.90;;;;;;5070822;28;20086;-74
2021/09/09 00:53:46;;;;;;;27.77;19.10;;;19.30;99.90;;;;;;5070670;28;20025;-75
2021/09/09 00:56:12;;;;;;;24.15;20.05;;;19.40;99.90;;;;;;5068151;28;20028;-74
2021/09/09 00:58:42;;;;;;;24.63;19.60;;;19.40;99.90;;;;;;5054591;28;20416;-75
2021/09/09 01:01:09;;;;;;;24.48;20.05;;;19.30;99.90;;;;;;5065802;28;20058;-75
2021/09/09 01:03:35;;;;;;;25.00;19.13;;;19.30;99.90;;;;;;5062920;28;20078;-75
2021/09/09 01:06:01;;;;;;;25.35;21.95;;;19.30;99.90;;;;;;5071491;28;20029;-75
2021/09/09 01:08:27;;;;;;;24.17;20.02;;;19.30;99.90;;;;;;5071259;28;20028;-74
2021/09/09 01:11:16;;;;;;;24.88;20.52;;;19.30;99.90;;;;;;5071738;28;20040;-78
2021/09/09 01:13:52;;;;;;;27.50;20.55;;;19.20;99.90;;;;;;5071276;28;20020;-74
2021/09/09 01:16:19;;;;;;;28.08;22.85;;;19.20;99.90;;;;;;5070916;28;20564;-74
2021/09/09 01:18:44;;;;;;;28.77;21.27;;;19.20;99.90;;;;;;5070278;28;20016;-74
2021/09/09 01:21:10;;;;;;;24.77;19.80;;;19.20;99.90;;;;;;5069786;28;20431;-74
2021/09/09 01:23:36;;;;;;;35.47;25.08;;;19.10;99.90;;;;;;5071356;28;20530;-75
2021/09/09 01:26:04;;;;;;;27.77;20.77;;;19.10;99.90;;;;;;5071170;28;20449;-74
2021/09/09 01:28:30;;;;;;;26.05;20.48;;;19.20;99.90;;;;;;5071158;28;20091;-74
2021/09/09 01:30:56;;;;;;;29.17;19.75;;;19.10;99.90;;;;;;5071827;28;20039;-74
2021/09/09 01:33:21;;;;;;;32.83;22.88;;;19.10;99.90;;;;;;5070769;28;20036;-75
2021/09/09 01:35:47;;;;;;;26.55;21.85;;;19.00;99.90;;;;;;5071536;28;20029;-75
2021/09/09 01:38:23;;;;;;;30.65;22.30;;;19.00;99.90;;;;;;5071462;28;20023;-75
2021/09/09 01:40:49;;;;;;;27.20;20.70;;;19.00;99.90;;;;;;5067776;28;20028;-74
2021/09/09 01:43:15;;;;;;;31.25;21.95;;;19.00;99.90;;;;;;5036439;28;20028;-74
2021/09/09 01:45:41;;;;;;;27.88;22.50;;;19.10;99.90;;;;;;5067006;28;20416;-74
2021/09/09 01:48:07;;;;;;;28.63;23.92;;;19.10;99.90;;;;;;5067471;28;20040;-74
2021/09/09 01:50:32;;;;;;;27.55;21.85;;;19.10;99.90;;;;;;5068228;28;20509;-74
2021/09/09 01:52:58;;;;;;;31.63;21.85;;;19.00;99.90;;;;;;5069834;28;20024;-74
2021/09/09 01:55:24;;;;;;;28.90;22.67;;;19.10;99.90;;;;;;5068014;28;20016;-74
2021/09/09 01:57:49;;;;;;;29.25;23.92;;;19.10;99.90;;;;;;5069129;28;20036;-75
2021/09/09 02:00:15;;;;;;;33.03;23.60;;;19.10;99.90;;;;;;5067206;28;20043;-75
2021/09/09 02:02:42;;;;;;;31.30;23.55;;;19.00;99.90;;;;;;5069067;28;20024;-74
2021/09/09 02:05:09;;;;;;;24.98;21.63;;;18.90;99.90;;;;;;5071082;28;20020;-75
2021/09/09 02:07:34;;;;;;;27.48;21.92;;;18.90;99.90;;;;;;5070639;28;20017;-75
2021/09/09 02:10:00;;;;;;;27.75;22.38;;;18.90;99.90;;;;;;5070957;28;20416;-75
2021/09/09 02:12:26;;;;;;;25.92;21.20;;;18.90;99.90;;;;;;5070396;28;20036;-75
2021/09/09 02:14:52;;;;;;;28.08;23.33;;;19.00;99.90;;;;;;5070564;28;20429;-75
2021/09/09 02:17:17;;;;;;;24.35;21.48;;;19.00;99.90;;;;;;5071391;28;20473;-74
2021/09/09 02:19:43;;;;;;;28.85;21.38;;;18.90;99.90;;;;;;5071407;28;20428;-73
2021/09/09 02:22:09;;;;;;;26.48;22.20;;;18.90;99.90;;;;;;5073688;28;20021;-74
2021/09/09 02:24:34;;;;;;;27.42;20.42;;;18.80;99.90;;;;;;5074937;28;20024;-75
2021/09/09 02:27:00;;;;;;;31.63;22.58;;;18.70;99.90;;;;;;5073511;28;20485;-74
2021/09/09 02:29:26;;;;;;;30.38;22.27;;;18.80;99.90;;;;;;5056156;28;20067;-74
2021/09/09 02:31:51;;;;;;;30.20;22.27;;;18.80;99.90;;;;;;5074621;28;20032;-74
2021/09/09 02:34:17;;;;;;;29.80;23.38;;;18.80;99.90;;;;;;5056411;28;20029;-74
2021/09/09 02:36:43;;;;;;;30.20;23.90;;;18.80;99.90;;;;;;5074190;28;20025;-75
2021/09/09 02:39:09;;;;;;;27.73;22.65;;;18.80;99.90;;;;;;5067253;28;20469;-75
2021/09/09 02:41:35;;;;;;;25.15;20.63;;;18.80;99.90;;;;;;5074780;28;20103;-75
2021/09/09 02:44:00;;;;;;;28.35;21.88;;;18.80;99.90;;;;;;5054663;28;20523;-74
2021/09/09 02:46:26;;;;;;;26.48;22.08;;;18.80;99.90;;;;;;5074464;28;20040;-75
2021/09/09 02:48:52;;;;;;;32.38;24.30;;;18.70;99.90;;;;;;5073469;28;20032;-75
2021/09/09 02:51:17;;;;;;;27.77;21.63;;;18.70;99.90;;;;;;5074777;28;20025;-75
2021/09/09 02:53:43;;;;;;;29.80;21.30;;;18.70;99.90;;;;;;5073608;28;20016;-74
2021/09/09 02:56:09;;;;;;;27.55;22.63;;;18.80;99.90;;;;;;5074439;28;20480;-74
2021/09/09 02:58:34;;;;;;;31.90;21.73;;;18.70;99.90;;;;;;5073789;28;20023;-74
2021/09/09 03:01:00;;;;;;;28.30;22.20;;;18.70;99.90;;;;;;5073743;28;20473;-75
2021/09/09 03:03:26;;;;;;;33.65;24.40;;;18.70;99.90;;;;;;5072385;28;20099;-76
2021/09/09 03:05:52;;;;;;;33.40;22.30;;;18.70;99.90;;;;;;5073485;28;20131;-75
2021/09/09 03:08:17;;;;;;;33.35;24.40;;;18.50;99.90;;;;;;5073265;28;20043;-75
2021/09/09 03:10:43;;;;;;;30.88;23.63;;;18.50;99.90;;;;;;5073513;28;20042;-74
2021/09/09 03:13:09;;;;;;;32.25;23.15;;;18.50;99.90;;;;;;5073830;28;20052;-75
2021/09/09 03:15:35;;;;;;;33.65;23.40;;;18.40;99.90;;;;;;5056431;28;20032;-75
2021/09/09 03:18:01;;;;;;;34.42;24.40;;;18.40;99.90;;;;;;5073302;28;20031;-75
2021/09/09 03:20:27;;;;;;;33.17;23.58;;;18.50;99.90;;;;;;5073669;28;20025;-75
2021/09/09 03:22:53;;;;;;;32.25;24.38;;;18.40;99.90;;;;;;5071866;28;20033;-75
2021/09/09 03:25:18;;;;;;;31.80;24.45;;;18.40;99.90;;;;;;5073919;28;20021;-75
2021/09/09 03:27:44;;;;;;;35.47;28.50;;;18.40;99.90;;;;;;5073321;28;20039;-75
2021/09/09 03:30:10;;;;;;;37.95;26.40;;;18.30;99.90;;;;;;5079201;28;20032;-75
2021/09/09 03:32:36;;;;;;;33.30;26.55;;;18.30;99.90;;;;;;5074030;28;20017;-75
2021/09/09 03:35:02;;;;;;;31.20;24.75;;;18.40;99.90;;;;;;5073331;28;20516;-74
2021/09/09 03:37:28;;;;;;;29.35;24.35;;;18.40;99.90;;;;;;5056109;28;20104;-75
2021/09/09 03:39:54;;;;;;;36.53;26.10;;;18.40;99.90;;;;;;5073048;28;20427;-74
2021/09/09 03:42:19;;;;;;;33.22;24.83;;;18.40;99.90;;;;;;5071080;28;20626;-74
2021/09/09 03:44:47;;;;;;;33.22;25.42;;;18.30;99.90;;;;;;5072584;28;20111;-75
2021/09/09 03:47:14;;;;;;;33.10;26.00;;;18.30;99.90;;;;;;5073023;28;20044;-75
2021/09/09 03:49:39;;;;;;;37.67;25.95;;;18.40;99.90;;;;;;5068846;28;20016;-74
2021/09/09 03:52:05;;;;;;;34.65;26.75;;;18.40;99.90;;;;;;5055179;28;20388;-76
2021/09/09 03:54:31;;;;;;;36.17;25.98;;;18.40;99.90;;;;;;5072985;28;20025;-75
2021/09/09 03:56:56;;;;;;;38.92;26.65;;;18.30;99.90;;;;;;5072163;28;20182;-74
2021/09/09 03:59:23;;;;;;;29.10;23.23;;;18.40;99.90;;;;;;5073658;28;20016;-74
2021/09/09 04:01:49;;;;;;;27.13;23.05;;;18.40;99.90;;;;;;5072570;28;20028;-74
2021/09/09 04:04:14;;;;;;;33.22;25.83;;;18.40;99.90;;;;;;5071417;28;20055;-75
2021/09/09 04:06:40;;;;;;;28.38;22.08;;;18.40;99.90;;;;;;5072968;28;20040;-73
2021/09/09 04:09:06;;;;;;;31.25;23.10;;;18.40;99.90;;;;;;5072850;28;20112;-74
2021/09/09 04:11:32;;;;;;;36.88;27.02;;;18.40;99.90;;;;;;5055161;28;20045;-74
2021/09/09 04:13:57;;;;;;;30.92;23.17;;;18.40;99.90;;;;;;5072661;28;20047;-75
2021/09/09 04:16:23;;;;;;;33.97;24.20;;;18.40;99.90;;;;;;5072532;28;20112;-75
2021/09/09 04:18:49;;;;;;;33.45;24.45;;;18.30;99.90;;;;;;5079272;28;20484;-75
2021/09/09 04:21:14;;;;;;;28.92;24.60;;;18.30;99.90;;;;;;5073017;28;20056;-75
2021/09/09 04:23:40;;;;;;;34.65;24.30;;;18.30;99.90;;;;;;5070914;28;20033;-79
2021/09/09 04:26:06;;;;;;;33.47;25.25;;;18.30;99.90;;;;;;5073022;28;20024;-75
2021/09/09 04:28:31;;;;;;;33.70;24.45;;;18.20;99.90;;;;;;5072817;28;20059;-75
2021/09/09 04:30:57;;;;;;;34.03;24.58;;;18.20;99.90;;;;;;5071409;28;20101;-76
2021/09/09 04:33:23;;;;;;;38.40;25.10;;;18.10;99.90;;;;;;5072304;28;20059;-75
2021/09/09 04:35:48;;;;;;;33.58;24.98;;;18.10;99.90;;;;;;5071857;28;20532;-78
2021/09/09 04:38:14;;;;;;;32.17;24.75;;;18.10;99.90;;;;;;5072299;28;20037;-75
2021/09/09 04:40:41;;;;;;;34.63;25.60;;;18.00;99.90;;;;;;5071789;28;20029;-76
2021/09/09 04:43:06;;;;;;;32.95;25.30;;;18.00;99.90;;;;;;5069868;28;20035;-75
2021/09/09 04:45:32;;;;;;;35.33;27.38;;;17.90;99.90;;;;;;5072511;28;20024;-75
2021/09/09 04:47:58;;;;;;;31.90;25.90;;;17.90;99.90;;;;;;5071909;28;20461;-78
2021/09/09 04:50:25;;;;;;;35.13;27.52;;;18.00;99.90;;;;;;5072340;28;20025;-75
2021/09/09 04:52:50;;;;;;;32.88;25.33;;;18.00;99.90;;;;;;5071748;28;20524;-74
2021/09/09 04:55:16;;;;;;;32.92;25.17;;;18.00;99.90;;;;;;5072478;28;20013;-76
2021/09/09 04:57:42;;;;;;;32.70;25.63;;;18.00;99.90;;;;;;5071239;28;20043;-78
2021/09/09 05:00:08;;;;;;;31.65;23.73;;;18.00;99.90;;;;;;5071590;28;20025;-77
2021/09/09 05:02:34;;;;;;;30.98;23.33;;;18.00;99.90;;;;;;5070708;28;20029;-76
2021/09/09 05:04:59;;;;;;;32.45;25.02;;;18.00;99.90;;;;;;5071545;28;20024;-75
2021/09/09 05:07:25;;;;;;;35.47;25.55;;;18.10;99.90;;;;;;5054416;28;20036;-75
2021/09/09 05:09:51;;;;;;;32.25;24.25;;;18.10;99.90;;;;;;5071023;28;20503;-75
2021/09/09 05:12:16;;;;;;;30.58;23.33;;;18.00;99.90;;;;;;5071395;28;20017;-75
2021/09/09 05:14:42;;;;;;;29.77;22.63;;;18.00;99.90;;;;;;5071149;28;20396;-75
2021/09/09 05:17:07;;;;;;;29.50;22.95;;;18.00;99.90;;;;;;5071960;28;20434;-75
2021/09/09 05:19:33;;;;;;;32.05;23.83;;;17.70;99.90;;;;;;5078120;28;20077;-75
2021/09/09 05:21:59;;;;;;;31.23;23.08;;;17.80;99.90;;;;;;5069694;28;20035;-74
2021/09/09 05:24:24;;;;;;;31.92;25.23;;;17.80;99.90;;;;;;5053442;28;20491;-75
2021/09/09 05:26:50;;;;;;;31.23;24.48;;;17.80;99.90;;;;;;5071009;28;20024;-75
2021/09/09 05:29:16;;;;;;;34.60;25.83;;;17.80;99.90;;;;;;5071596;28;20504;-75
2021/09/09 05:31:41;;;;;;;32.75;24.98;;;17.70;99.90;;;;;;5070937;28;20068;-75
2021/09/09 05:34:07;;;;;;;38.90;27.27;;;17.70;99.90;;;;;;5071513;28;20387;-75
2021/09/09 05:36:32;;;;;;;40.22;25.75;;;17.80;99.90;;;;;;5071839;28;20033;-76
2021/09/09 05:38:58;;;;;;;35.05;26.05;;;17.60;99.90;;;;;;5071061;28;20033;-74
2021/09/09 05:41:24;;;;;;;34.80;24.83;;;17.70;99.90;;;;;;5070173;28;20024;-75
2021/09/09 05:43:50;;;;;;;42.88;26.67;;;17.70;99.90;;;;;;5067846;28;20074;-75
2021/09/09 05:46:15;;;;;;;30.83;22.00;;;17.70;99.90;;;;;;5071367;28;20060;-75
2021/09/09 05:48:41;;;;;;;31.38;23.88;;;17.80;99.90;;;;;;5069753;28;20480;-74
2021/09/09 05:51:07;;;;;;;31.52;21.70;;;17.90;99.90;;;;;;5070374;28;20025;-75
2021/09/09 05:53:33;;;;;;;30.25;22.83;;;17.70;99.90;;;;;;5067326;28;20029;-74
2021/09/09 05:55:59;;;;;;;31.95;21.73;;;17.80;99.90;;;;;;5067559;28;20093;-75
2021/09/09 05:58:25;;;;;;;34.97;23.70;;;17.80;99.90;;;;;;5069486;28;20469;-74
2021/09/09 06:00:50;;;;;;;34.55;23.95;;;17.90;99.90;;;;;;5071025;28;20032;-75
2021/09/09 06:03:16;;;;;;;30.80;23.55;;;17.90;99.90;;;;;;5067214;28;20059;-74
2021/09/09 06:05:42;;;;;;;29.70;20.15;;;18.00;99.90;;;;;;5070626;28;20466;-75
2021/09/09 06:08:08;;;;;;;33.92;22.42;;;17.90;99.90;;;;;;5070481;28;20027;-74
2021/09/09 06:10:33;;;;;;;32.95;23.02;;;17.90;99.90;;;;;;5071100;28;20146;-75
2021/09/09 06:12:59;;;;;;;28.38;20.60;;;18.00;99.90;;;;;;5048691;28;20477;-75
2021/09/09 06:15:25;;;;;;;28.60;20.45;;;17.90;99.90;;;;;;5069922;28;20070;-75
2021/09/09 06:17:51;;;;;;;30.13;21.73;;;17.90;99.90;;;;;;5071073;28;20086;-75
2021/09/09 06:20:17;;;;;;;29.23;21.05;;;17.90;99.90;;;;;;5070097;28;20034;-75
2021/09/09 06:22:43;;;;;;;30.17;21.50;;;18.00;99.90;;;;;;5050342;28;20511;-74
2021/09/09 06:25:10;;;;;;;35.03;22.15;;;18.00;99.90;;;;;;5069035;28;20427;-75
2021/09/09 06:27:36;;;;;;;34.35;22.05;;;18.10;99.90;;;;;;5069412;28;20016;-74
2021/09/09 06:30:02;;;;;;;27.13;21.85;;;18.10;99.90;;;;;;5069053;28;20111;-75
2021/09/09 06:32:28;;;;;;;28.58;23.10;;;18.20;99.90;;;;;;5070068;28;20599;-75
2021/09/09 06:34:54;;;;;;;29.80;23.85;;;18.20;99.90;;;;;;5070091;28;20059;-75
2021/09/09 06:37:19;;;;;;;36.47;24.50;;;18.10;99.90;;;;;;5070316;28;20060;-75
2021/09/09 06:39:45;;;;;;;26.77;21.25;;;18.10;99.90;;;;;;5070807;28;20033;-75
2021/09/09 06:42:11;;;;;;;29.33;22.65;;;18.10;99.90;;;;;;5067759;28;20365;-75
2021/09/09 06:44:36;;;;;;;38.10;24.02;;;18.20;99.90;;;;;;5070900;28;20047;-75
2021/09/09 06:47:02;;;;;;;35.05;22.25;;;18.10;99.90;;;;;;5069812;28;20062;-75
2021/09/09 06:49:28;;;;;;;29.85;22.73;;;18.10;99.90;;;;;;5069562;28;20645;-75
2021/09/09 06:51:53;;;;;;;28.98;20.65;;;18.20;99.90;;;;;;5066683;28;20491;-75
2021/09/09 06:54:19;;;;;;;30.98;21.23;;;18.20;99.90;;;;;;5068862;28;20545;-75
2021/09/09 06:56:44;;;;;;;26.55;21.33;;;18.30;99.90;;;;;;5068384;28;20424;-75
2021/09/09 06:59:10;;;;;;;29.40;21.98;;;18.30;99.90;;;;;;5069138;28;20138;-75
2021/09/09 07:01:36;;;;;;;27.05;20.30;;;18.40;99.90;;;;;;5070571;28;20074;-75
2021/09/09 07:04:01;;;;;;;27.08;19.92;;;18.40;99.90;;;;;;5067772;28;20051;-74
2021/09/09 07:06:27;;;;;;;29.80;20.58;;;18.50;99.90;;;;;;5051047;28;20469;-75
2021/09/09 07:08:53;;;;;;;30.40;21.17;;;18.60;99.90;;;;;;5072170;28;20432;-75
2021/09/09 07:11:18;;;;;;;27.35;20.00;;;18.60;99.90;;;;;;5073824;28;20461;-74
2021/09/09 07:13:44;;;;;;;26.10;19.25;;;18.70;99.90;;;;;;5072360;28;20103;-75
2021/09/09 07:16:10;;;;;;;23.67;19.02;;;18.70;99.90;;;;;;5073675;28;20025;-75
2021/09/09 07:18:36;;;;;;;34.10;21.08;;;18.80;99.90;;;;;;5071961;28;20029;-74
2021/09/09 07:21:02;;;;;;;26.50;18.58;;;18.80;99.90;;;;;;5055644;28;20452;-75
2021/09/09 07:23:28;;;;;;;29.08;18.55;;;18.90;99.90;;;;;;5053362;28;20040;-75
2021/09/09 07:25:54;;;;;;;23.50;17.15;;;18.90;99.90;;;;;;5072368;28;20019;-75
2021/09/09 07:28:19;;;;;;;21.35;15.70;;;19.00;99.90;;;;;;5073466;28;20366;-74
2021/09/09 07:30:45;;;;;;;21.98;16.85;;;19.10;99.90;;;;;;5072233;28;20037;-74
2021/09/09 07:33:11;;;;;;;20.35;16.75;;;19.10;99.90;;;;;;5072866;28;20095;-74
2021/09/09 07:35:37;;;;;;;19.70;16.27;;;19.20;99.90;;;;;;5057436;28;20028;-74
2021/09/09 07:38:03;;;;;;;22.95;16.00;;;19.30;99.90;;;;;;5073307;28;20039;-75
2021/09/09 07:40:29;;;;;;;25.08;17.02;;;19.30;99.90;;;;;;5073241;28;20020;-74
2021/09/09 07:42:54;;;;;;;22.98;15.20;;;19.40;99.90;;;;;;5069252;28;20031;-74
2021/09/09 07:45:20;;;;;;;19.65;15.80;;;19.60;99.90;;;;;;5045896;28;20021;-75
2021/09/09 07:47:46;;;;;;;20.23;15.27;;;19.70;99.90;;;;;;5068995;28;20074;-75
2021/09/09 07:50:12;;;;;;;21.85;15.25;;;19.80;99.90;;;;;;5070298;28;20037;-75
2021/09/09 07:52:42;;;;;;;22.77;16.98;;;19.90;99.90;;;;;;5071767;28;20088;-74
2021/09/09 07:55:10;;;;;;;22.55;16.23;;;20.10;99.90;;;;;;5064828;28;20025;-75
2021/09/09 07:57:36;;;;;;;22.63;14.40;;;20.20;99.90;;;;;;5068827;28;20150;-75
2021/09/09 08:00:03;;;;;;;19.02;14.85;;;20.40;99.90;;;;;;5048190;28;20123;-74
2021/09/09 08:02:29;;;;;;;16.65;14.18;;;20.60;99.90;;;;;;5072215;28;20683;-74
2021/09/09 08:04:54;;;;;;;16.30;13.43;;;20.60;99.90;;;;;;5072214;28;20504;-75
2021/09/09 08:07:20;;;;;;;18.95;13.50;;;20.80;99.90;;;;;;5071596;28;20393;-74
2021/09/09 08:09:46;;;;;;;16.15;12.38;;;20.90;99.90;;;;;;5071761;28;20036;-75
2021/09/09 08:12:11;;;;;;;17.67;13.40;;;21.00;99.90;;;;;;5070925;28;20028;-75
2021/09/09 08:14:37;;;;;;;20.15;12.15;;;21.10;99.90;;;;;;5071780;28;20477;-74
2021/09/09 08:17:03;;;;;;;18.73;12.75;;;21.20;99.90;;;;;;5070086;28;20072;-75
2021/09/09 08:19:29;;;;;;;17.85;13.68;;;21.20;99.90;;;;;;5070694;28;20086;-74
2021/09/09 08:21:54;;;;;;;17.67;12.45;;;21.40;99.90;;;;;;5069566;28;20085;-75
2021/09/09 08:24:20;;;;;;;17.35;14.27;;;21.40;99.90;;;;;;5070545;28;20028;-75
2021/09/09 08:26:46;;;;;;;18.70;14.30;;;21.50;99.90;;;;;;5071402;28;20521;-74
2021/09/09 08:29:11;;;;;;;16.98;13.25;;;21.60;99.90;;;;;;5067838;28;20028;-74
2021/09/09 08:31:37;;;;;;;21.17;13.95;;;21.80;99.90;;;;;;5072015;28;20033;-74
2021/09/09 08:34:03;;;;;;;18.38;13.90;;;21.90;99.90;;;;;;5053370;28;20116;-74
2021/09/09 08:36:28;;;;;;;17.80;13.52;;;22.00;99.90;;;;;;5070600;28;20036;-74
2021/09/09 08:38:54;;;;;;;17.27;13.45;;;22.20;99.90;;;;;;5072346;28;20479;-74
2021/09/09 08:41:20;;;;;;;16.83;14.85;;;22.30;99.90;;;;;;5066641;28;20078;-73
2021/09/09 08:43:46;;;;;;;22.67;14.32;;;22.30;99.90;;;;;;5067132;28;20028;-74
2021/09/09 08:46:15;;;;;;;18.90;14.35;;;22.30;99.90;;;;;;5071287;28;20031;-75
2021/09/09 08:48:46;;;;;;;18.50;14.95;;;22.40;99.90;;;;;;5070686;28;20017;-74
2021/09/09 08:51:16;;;;;;;18.38;15.13;;;22.40;99.90;;;;;;5051733;28;20481;-74
2021/09/09 08:53:43;;;;;;;19.10;13.73;;;22.40;99.90;;;;;;5069311;28;20644;-75
2021/09/09 08:56:11;;;;;;;19.83;13.15;;;22.60;99.90;;;;;;5048481;28;20050;-75
2021/09/09 08:58:37;;;;;;;18.05;14.23;;;22.70;99.90;;;;;;5063810;28;20733;-74
2021/09/09 09:01:15;;;;;;;17.95;13.73;;;22.80;99.90;;;;;;5068655;28;20051;-76
2021/09/09 09:03:44;;;;;;;18.45;14.60;;;22.90;99.90;;;;;;5069962;28;20016;-75
2021/09/09 09:06:32;;;;;;;20.88;13.75;;;22.90;99.90;;;;;;5069945;28;20052;-74
2021/09/09 09:09:08;;;;;;;22.83;15.02;;;23.00;99.90;;;;;;5070202;28;20024;-75
2021/09/09 09:11:43;;;;;;;20.17;14.43;;;23.10;99.90;;;;;;5071274;28;20032;-77
2021/09/09 09:14:10;;;;;;;18.45;13.63;;;23.20;99.90;;;;;;5070899;28;20035;-74
2021/09/09 09:16:41;;;;;;;19.10;14.50;;;23.20;99.90;;;;;;5067832;28;20388;-74
2021/09/09 09:19:10;;;;;;;18.87;14.27;;;23.30;99.90;;;;;;5069334;28;20024;-74
2021/09/09 09:21:42;;;;;;;18.40;14.32;;;23.40;99.90;;;;;;5069480;28;20826;-74
2021/09/09 09:24:07;;;;;;;16.05;14.00;;;23.60;99.90;;;;;;5068602;28;20085;-75
2021/09/09 09:26:33;;;;;;;18.45;13.45;;;23.80;99.90;;;;;;5070678;28;20469;-76
2021/09/09 09:29:00;;;;;;;20.30;14.48;;;24.00;99.90;;;;;;5070071;28;20033;-76
2021/09/09 09:31:27;;;;;;;18.13;12.98;;;24.10;99.90;;;;;;5065769;28;20402;-75
2021/09/09 09:34:02;;;;;;;15.68;12.93;;;24.30;99.90;;;;;;5066038;28;20036;-75
2021/09/09 09:36:36;;;;;;;22.88;13.15;;;24.30;99.90;;;;;;5069526;28;20055;-76
2021/09/09 09:39:10;;;;;;;17.70;13.55;;;24.30;99.90;;;;;;5071079;28;20090;-75
2021/09/09 09:41:38;;;;;;;20.83;14.10;;;24.20;99.90;;;;;;5066664;28;20028;-75
2021/09/09 09:44:07;;;;;;;18.13;15.07;;;24.30;99.90;;;;;;5070867;28;20056;-78
2021/09/09 09:46:39;;;;;;;18.80;13.95;;;24.30;99.90;;;;;;5070814;28;20452;-77
2021/09/09 09:49:26;;;;;;;19.00;14.75;;;24.40;99.90;;;;;;5067713;28;20031;-74
2021/09/09 09:51:56;;;;;;;17.98;14.63;;;24.50;99.90;;;;;;5066893;28;20039;-75
2021/09/09 09:54:26;;;;;;;17.08;13.77;;;24.70;99.90;;;;;;5068981;28;20029;-74
2021/09/09 09:56:53;;;;;;;17.92;15.05;;;25.00;99.90;;;;;;5068943;28;20056;-76
2021/09/09 09:59:19;;;;;;;21.55;16.17;;;25.20;99.90;;;;;;5066736;28;20138;-76
2021/09/09 10:01:46;;;;;;;17.45;14.65;;;25.00;99.90;;;;;;5069111;28;20098;-75
2021/09/09 10:04:16;;;;;;;20.02;13.00;;;25.10;99.90;;;;;;5070349;28;20100;-75
2021/09/09 10:06:43;;;;;;;18.65;13.63;;;25.10;99.90;;;;;;5067222;28;20035;-79
2021/09/09 10:09:09;;;;;;;19.25;13.35;;;25.00;99.90;;;;;;5070544;28;20103;-74
2021/09/09 10:11:35;;;;;;;20.70;15.30;;;24.90;99.90;;;;;;5061830;28;20112;-76
2021/09/09 10:14:03;;;;;;;22.60;15.50;;;24.80;99.90;;;;;;5066822;28;20100;-75
2021/09/09 10:16:31;;;;;;;18.00;12.38;;;24.80;99.90;;;;;;5068844;28;20024;-75
2021/09/09 10:18:57;;;;;;;18.42;12.35;;;24.90;99.90;;;;;;5069341;28;21157;-76
2021/09/09 10:21:40;;;;;;;22.33;14.65;;;25.00;99.90;;;;;;5069664;28;20499;-75
2021/09/09 10:24:12;;;;;;;19.30;13.10;;;25.10;99.90;;;;;;5062000;28;20020;-75
2021/09/09 10:26:38;;;;;;;21.75;13.07;;;25.30;99.90;;;;;;5067110;28;20438;-75
2021/09/09 10:29:08;;;;;;;14.73;12.32;;;25.30;99.90;;;;;;5069758;28;20039;-75
2021/09/09 10:31:40;;;;;;;22.58;11.60;;;25.50;99.90;;;;;;5051849;28;20037;-78
2021/09/09 10:34:21;;;;;;;16.55;10.52;;;25.70;99.90;;;;;;5046402;28;20048;-78
2021/09/09 10:36:47;;;;;;;15.98;12.63;;;26.00;99.90;;;;;;5061396;28;20043;-74
2021/09/09 10:39:21;;;;;;;13.77;11.68;;;26.10;99.90;;;;;;5065732;28;20043;-75
2021/09/09 10:41:48;;;;;;;12.80;10.73;;;26.20;99.90;;;;;;5054871;28;20389;-74
2021/09/09 10:44:14;;;;;;;14.60;10.13;;;26.40;99.90;;;;;;5070894;28;20029;-74
2021/09/09 10:46:45;;;;;;;13.45;10.30;;;26.60;99.90;;;;;;5070188;28;20024;-75
2021/09/09 10:49:21;;;;;;;15.70;10.73;;;26.80;99.90;;;;;;5070082;28;20385;-78
2021/09/09 10:52:05;;;;;;;15.57;10.55;;;26.90;99.90;;;;;;5072733;28;20031;-74
2021/09/09 10:54:32;;;;;;;14.00;10.60;;;27.10;99.90;;;;;;5053996;28;20020;-75
2021/09/09 10:57:14;;;;;;;18.55;10.93;;;27.20;99.90;;;;;;5073049;28;20108;-76
2021/09/09 10:59:48;;;;;;;14.65;11.63;;;27.30;99.90;;;;;;5069067;28;20559;-74
2021/09/09 11:02:18;;;;;;;13.57;11.15;;;27.30;99.90;;;;;;5071539;28;20419;-76
2021/09/09 11:04:49;;;;;;;13.50;10.52;;;27.40;99.90;;;;;;5069089;28;20016;-75
2021/09/09 11:07:31;;;;;;;13.35;10.32;;;27.50;99.90;;;;;;5069802;28;20055;-76
2021/09/09 11:10:03;;;;;;;14.68;10.55;;;27.60;99.90;;;;;;5072395;28;20485;-76
2021/09/09 11:12:41;;;;;;;14.73;11.03;;;27.70;99.90;;;;;;5072822;28;20047;-76
2021/09/09 11:15:12;;;;;;;15.65;11.07;;;27.70;99.90;;;;;;5072250;28;20275;-75
2021/09/09 11:17:38;;;;;;;17.70;11.40;;;27.70;99.90;;;;;;5069311;28;20025;-76
2021/09/09 11:20:07;;;;;;;12.75;10.70;;;27.90;99.90;;;;;;5071105;28;20039;-76
2021/09/09 11:22:33;;;;;;;15.80;11.23;;;27.80;99.90;;;;;;5054498;28;20043;-76
2021/09/09 11:25:00;;;;;;;13.02;10.98;;;27.80;99.90;;;;;;5070139;28;20032;-75
2021/09/09 11:27:35;;;;;;;12.88;10.30;;;27.70;99.90;;;;;;5071530;28;20365;-76
2021/09/09 11:30:02;;;;;;;15.73;10.77;;;27.60;99.90;;;;;;5071714;28;20032;-76
2021/09/09 11:32:30;;;;;;;11.63;9.60;;;27.70;99.90;;;;;;5072573;28;20116;-75
2021/09/09 11:35:10;;;;;;;12.45;9.32;;;27.90;99.90;;;;;;5072065;28;20066;-76
2021/09/09 11:37:46;;;;;;;11.32;8.98;;;28.10;99.90;;;;;;5072029;28;20037;-76
2021/09/09 11:40:13;;;;;;;8.98;8.05;;;28.30;99.90;;;;;;5050227;28;20028;-76
2021/09/09 11:42:39;;;;;;;10.38;8.95;;;28.50;99.90;;;;;;5072524;28;20032;-79
2021/09/09 11:45:05;;;;;;;10.52;8.55;;;28.60;99.90;;;;;;5071620;28;20497;-76
2021/09/09 11:47:31;;;;;;;11.27;9.35;;;28.70;99.90;;;;;;5072015;28;20066;-76
2021/09/09 11:50:05;;;;;;;11.18;9.77;;;28.70;99.90;;;;;;5072438;28;20025;-75
2021/09/09 11:52:30;;;;;;;13.15;10.63;;;28.80;99.90;;;;;;5063515;28;20021;-75
2021/09/09 11:54:57;;;;;;;13.70;10.98;;;28.80;99.90;;;;;;5066505;28;20027;-75
2021/09/09 11:57:23;;;;;;;15.02;10.63;;;28.80;99.90;;;;;;5068677;28;20021;-76
2021/09/09 11:59:50;;;;;;;12.63;10.27;;;28.70;99.90;;;;;;5063398;28;20028;-76
2021/09/09 12:02:28;;;;;;;11.52;10.25;;;28.70;99.90;;;;;;5043716;28;20118;-76
2021/09/09 12:04:56;;;;;;;11.43;9.35;;;28.60;99.90;;;;;;5060817;28;20036;-75
2021/09/09 12:07:28;;;;;;;12.13;10.75;;;28.40;99.90;;;;;;5066908;28;20037;-75
2021/09/09 12:09:59;;;;;;;15.40;11.65;;;28.30;99.90;;;;;;5065875;28;20063;-76
2021/09/09 12:12:29;;;;;;;14.38;11.43;;;28.20;99.90;;;;;;5067147;28;20017;-76
2021/09/09 12:15:08;;;;;;;13.80;10.70;;;28.00;99.90;;;;;;5065248;28;20032;-76
2021/09/09 12:17:35;;;;;;;11.15;10.02;;;28.10;99.90;;;;;;5069484;28;20473;-76
2021/09/09 12:20:31;;;;;;;14.60;10.27;;;28.10;99.90;;;;;;5061216;28;20016;-76
2021/09/09 12:22:57;;;;;;;14.88;12.02;;;28.20;99.90;;;;;;5049918;28;21353;-76
2021/09/09 12:25:37;;;;;;;15.70;11.73;;;28.10;99.90;;;;;;5065425;28;20041;-76
2021/09/09 12:28:07;;;;;;;14.50;11.13;;;27.90;99.90;;;;;;5061522;28;20024;-76